Eastern Wv Regional Shepherd Field Martinsburg US
ICAO: KMRB
IATA: MRB
Category: Medium
Scheduled Services: No

Elevation: 565 ft
TransAlt. 18000 ft.

Airport Communications:
POTOMAC APP/DEP:126.1
ASOS:119.925
POTOMAC CLNC DEL:132.075
CTAF:124.3
GND:121.8
PIKESIDE CON ANG:29.7
ELKINS RDO:122.45
MARTINSBURG TWR:124.3
UNICOM:122.95

KMRB Zoom In..

Runways:

(A) RW 08 length 8815 ft width 150 ft
---- / hdg 79

(B) RW 26 length 8815 ft width 150 ft
ILS 108.30 / hdg 259

Location; KMRB
Day. 19 / Time. 03.53 Zulu
* Altimeter: 30.02
* Temperature: 18° c. 64.4°f.
* Wind from: 000° Speed 00 kn.
Dewpoint: 16° c.
Visibility: 10 Statute Miles.
Clouds: Clear (automated report).

KMRB 190353Z AUTO 00000KT 10SM CLR 18/16 A3002 RMK AO2 SLP160 T01780156


Wind - Calm.

 
 
jpsmedia.com for Web Design worldairports.se 2018   terms of use